George Washington, Virginia
Current Conditions -  °F | °C
As of 8:52 AM on Saturday 20 Dec 2014 (Local Time) from KDCA Reporting Station
Broken Clouds Broken Clouds  
Wind Chill: 28°   Ceiling: 20000
Heat Index: 34°   Visibility: 10mi
Dew Point: 20°   Wind: 7mph
Humidity: 56%   Direction: 350°N
Pressure: 30.34"   Gusts: NA
Location:  38.8367°N, 77.0641°W
Report Text: KDCA 201352Z 35006KT 10SM BKN200 01/M07 A3034 RMK AO2 SLP273 T00111067
Loading
Personal Weather Stations






























Interactive Weather Map New forecast layout! Learn more

10-Day Weather Forecast

Advertisements
Track Severe Weather on mobile